Aérodrome :







RETROUVEZ-NOUS SUR...

 
LOGIN :

S'inscrire | Disclaimer

   EN    FR    IT 

 









Légende :    VFR   VFR Marginal   IFR   IFR Intensif   IFR Très Intensif
Visi : 
Plafond : 
>= 8 km
>= 3000ft
5 à 8 km
1000 à 3000 ft
1500m à 5 km
500 à 1000 ft
800 à 1500m
200 à 500 ft
< 800m
< 200 ft
Symboles :   Orages  Brouillard  Fortes neiges  Fortes précipitations  Vent > 20 kt






- Altitude de l'aérodrome : 76 ft
- Code IATA : PWM


KPWM - Portland International Jetport

DERNIER METAR :
  • 020651Z AUTO 35012KT 10SM OVC046 04/01 A2963 RMK AO2 RAE20 SLP034 P0000 T00440011

METARs EXPIRÉS :
  • 020551Z AUTO 35011KT 10SM -RA OVC050 04/01 A2966 RMK AO2 SLP044 P0001 60004 T00390011 10067 20039 58022
  • 020451Z AUTO 35012KT 10SM -RA FEW037 OVC050 04/01 A2968 RMK AO2 SLP052 P0002 T00390011 400781017

TAF KPWM
Valide du 02 à 06h jusqu'au 03 à 06h UTC


020538Z 0206/0306 35012KT P6SM -RA BKN025 OVC035
FM021100 34012G15KT P6SM -RA OVC015
FM021600 35012G20KT 3SM -RA OVC009
FM030500 02011KT 1SM RA OVC008



MET'MAP, la Météo Aéronautique d'un coup d'oeil ! - Copyright ORBIFLY Décembre 2007 - Disclaimer

ORBIFLY MET'MAP TEAM :

Programmation & Développement : Alexandra Zaïnal
Sur une idée originale de : Baudouin d'Aumeries
Assistance à la programmation : Marc-Olivier Méhu
Soutien technique & logistique : Manuel Goepfert

Contact : metmap@orbifly.com




SOURCES & CREDITS :

   NOAA